createdAt,value
2018-04-19T00:00:31.351Z,54.40
2018-04-19T00:02:58.851Z,54.40
2018-04-19T00:05:27.133Z,55.10
2018-04-19T00:07:54.635Z,55.10
2018-04-19T00:10:22.275Z,54.80
2018-04-19T00:12:49.757Z,55.20
2018-04-19T00:15:17.248Z,54.80
2018-04-19T00:17:45.492Z,54.80
2018-04-19T00:20:13.010Z,54.80
2018-04-19T00:22:40.476Z,54.90
2018-04-19T00:25:07.978Z,55.10
2018-04-19T00:27:36.228Z,55.20
2018-04-19T00:30:04.520Z,55.80
2018-04-19T00:32:32.829Z,55.30
2018-04-19T00:35:00.381Z,55.30
2018-04-19T00:37:28.663Z,55.00
2018-04-19T00:39:56.241Z,55.20
2018-04-19T00:42:24.782Z,55.40
2018-04-19T00:44:52.277Z,55.60
2018-04-19T00:47:19.792Z,56.00
2018-04-19T00:49:48.809Z,56.30
2018-04-19T00:52:16.339Z,56.30
2018-04-19T00:54:43.834Z,56.20
2018-04-19T00:57:11.325Z,56.40
2018-04-19T00:59:40.341Z,56.30
2018-04-19T01:02:08.571Z,56.60
2018-04-19T01:04:36.073Z,56.50
2018-04-19T01:07:04.390Z,56.60
2018-04-19T01:09:31.887Z,56.40
2018-04-19T01:11:59.408Z,56.50
2018-04-19T01:14:27.700Z,56.80
2018-04-19T01:16:55.966Z,56.80
2018-04-19T01:19:24.277Z,56.80
2018-04-19T01:21:51.752Z,56.80
2018-04-19T01:24:19.229Z,56.80
2018-04-19T01:26:46.752Z,56.40
2018-04-19T01:29:14.279Z,56.20
2018-04-19T01:31:41.789Z,56.30
2018-04-19T01:34:10.025Z,56.40
2018-04-19T01:36:37.509Z,56.40
2018-04-19T01:39:05.022Z,56.40
2018-04-19T01:41:33.294Z,56.20
2018-04-19T01:44:01.537Z,55.90
2018-04-19T01:46:29.061Z,55.80
2018-04-19T01:48:56.522Z,55.80
2018-04-19T01:51:24.792Z,56.10
2018-04-19T01:53:53.105Z,55.90
2018-04-19T01:56:20.615Z,55.90
2018-04-19T01:58:48.119Z,55.70
2018-04-19T02:01:15.681Z,56.10
2018-04-19T02:03:43.240Z,55.70
2018-04-19T02:06:10.714Z,55.80
2018-04-19T02:08:38.254Z,56.10
2018-04-19T02:11:05.756Z,56.00
2018-04-19T02:13:34.007Z,56.20
2018-04-19T02:16:01.498Z,56.10
2018-04-19T02:18:29.806Z,56.50
2018-04-19T02:20:57.360Z,56.50
2018-04-19T02:23:24.919Z,56.60
2018-04-19T02:25:52.432Z,56.50
2018-04-19T02:28:20.042Z,56.90
2018-04-19T02:30:47.556Z,57.10
2018-04-19T02:33:15.824Z,57.40
2018-04-19T02:35:44.126Z,58.10
2018-04-19T02:38:11.620Z,58.00
2018-04-19T02:40:39.096Z,58.30
2018-04-19T02:43:06.580Z,58.10
2018-04-19T02:45:35.015Z,58.10
2018-04-19T02:48:02.525Z,58.00
2018-04-19T02:50:30.079Z,57.90
2018-04-19T02:52:57.562Z,57.70
2018-04-19T02:55:25.798Z,58.20
2018-04-19T02:57:53.322Z,58.20
2018-04-19T03:00:20.816Z,58.40
2018-04-19T03:02:49.361Z,58.60
2018-04-19T03:05:16.875Z,58.50
2018-04-19T03:07:45.144Z,58.70
2018-04-19T03:10:12.621Z,58.60
2018-04-19T03:12:40.140Z,58.80
2018-04-19T03:15:08.407Z,58.50
2018-04-19T03:17:36.785Z,58.20
2018-04-19T03:20:04.257Z,58.10
2018-04-19T03:22:31.757Z,58.30
2018-04-19T03:24:59.997Z,58.40
2018-04-19T03:27:27.495Z,58.40
2018-04-19T03:29:55.038Z,58.30
2018-04-19T03:32:23.334Z,58.40
2018-04-19T03:34:50.825Z,58.40
2018-04-19T03:37:18.316Z,58.90
2018-04-19T03:39:45.826Z,58.80
2018-04-19T03:42:14.085Z,59.10
2018-04-19T03:44:41.698Z,59.10
2018-04-19T03:47:09.255Z,59.70
2018-04-19T03:49:37.368Z,60.30
2018-04-19T03:52:05.680Z,61.30
2018-04-19T03:54:33.236Z,61.20
2018-04-19T03:57:00.695Z,61.60
2018-04-19T03:59:28.227Z,62.00
2018-04-19T04:01:55.723Z,62.00
2018-04-19T04:04:23.434Z,62.20
2018-04-19T04:06:50.923Z,62.30
2018-04-19T04:09:18.387Z,62.50
2018-04-19T04:11:45.901Z,62.40
2018-04-19T04:14:13.369Z,62.60
2018-04-19T04:16:52.653Z,62.50
2018-04-19T04:19:31.876Z,62.80
2018-04-19T04:22:24.138Z,63.20
2018-04-19T04:24:51.999Z,63.70
2018-04-19T04:27:19.491Z,63.80
2018-04-19T04:29:47.004Z,63.90
2018-04-19T04:32:14.491Z,64.10
2018-04-19T04:34:42.751Z,64.40
2018-04-19T04:37:10.981Z,64.80
2018-04-19T04:39:38.465Z,64.60
2018-04-19T04:42:05.997Z,64.80
2018-04-19T04:44:34.265Z,65.20
2018-04-19T04:47:02.519Z,65.60
2018-04-19T04:49:30.009Z,65.50
2018-04-19T04:51:57.499Z,65.50
2018-04-19T04:54:25.011Z,65.60
2018-04-19T04:56:52.500Z,65.60
2018-04-19T04:59:20.758Z,65.90
2018-04-19T05:01:48.383Z,65.90
2018-04-19T05:04:15.926Z,66.40
2018-04-19T05:06:43.421Z,66.70
2018-04-19T05:09:10.940Z,66.60
2018-04-19T05:11:39.189Z,67.00
2018-04-19T05:14:07.527Z,67.00
2018-04-19T05:16:35.067Z,67.00
2018-04-19T05:19:02.556Z,67.40
2018-04-19T05:21:30.021Z,67.80
2018-04-19T05:23:57.510Z,67.90
2018-04-19T05:26:25.023Z,68.30
2018-04-19T05:28:52.505Z,69.30
2018-04-19T05:31:20.033Z,68.70
2018-04-19T05:33:48.295Z,69.30
2018-04-19T05:36:17.531Z,69.40
2018-04-19T05:38:45.031Z,69.40
2018-04-19T05:41:12.587Z,69.50
2018-04-19T05:43:40.146Z,70.00
2018-04-19T05:46:07.642Z,70.80
2018-04-19T05:48:35.114Z,70.10
2018-04-19T05:51:02.584Z,70.30
2018-04-19T05:53:30.071Z,70.20
2018-04-19T05:55:58.338Z,69.70
2018-04-19T05:58:25.922Z,69.70
2018-04-19T06:00:53.432Z,69.40
2018-04-19T06:03:21.744Z,68.20
2018-04-19T06:05:49.306Z,68.10
2018-04-19T06:08:16.816Z,67.40
2018-04-19T06:10:44.442Z,67.10
2018-04-19T06:13:11.957Z,66.80
2018-04-19T06:15:40.263Z,67.30
2018-04-19T06:18:07.822Z,67.30
2018-04-19T06:20:36.104Z,66.60
2018-04-19T06:23:04.386Z,66.50
2018-04-19T06:25:31.878Z,66.40
2018-04-19T06:27:59.395Z,66.30
2018-04-19T06:30:26.890Z,66.60
2018-04-19T06:32:54.391Z,66.60
2018-04-19T06:35:22.634Z,64.70
2018-04-19T06:37:50.154Z,64.60
2018-04-19T06:40:17.638Z,64.60
2018-04-19T06:42:45.127Z,64.30
2018-04-19T06:45:13.374Z,64.00
2018-04-19T06:47:40.857Z,64.00
2018-04-19T06:50:08.429Z,63.60
2018-04-19T06:52:35.902Z,61.30
2018-04-19T06:55:03.404Z,58.60
2018-04-19T06:57:31.663Z,56.60
2018-04-19T06:59:59.164Z,56.00
2018-04-19T07:02:26.665Z,55.00
2018-04-19T07:04:54.909Z,53.60
2018-04-19T07:07:22.519Z,53.50
2018-04-19T07:09:50.052Z,53.70
2018-04-19T07:12:17.624Z,53.40
2018-04-19T07:14:45.193Z,53.40
2018-04-19T07:17:13.416Z,53.60
2018-04-19T07:19:41.762Z,53.50
2018-04-19T07:22:09.310Z,53.50
2018-04-19T07:24:36.890Z,53.90
2018-04-19T07:27:04.449Z,53.50
2018-04-19T07:29:32.087Z,52.50
2018-04-19T07:32:00.355Z,51.90
2018-04-19T07:34:28.657Z,51.40
2018-04-19T07:36:56.208Z,51.30
2018-04-19T07:39:23.703Z,50.60
2018-04-19T07:41:52.011Z,50.50
2018-04-19T07:44:19.566Z,50.50
2018-04-19T07:46:47.129Z,50.80
2018-04-19T07:49:14.690Z,49.70
2018-04-19T07:51:42.995Z,49.50
2018-04-19T07:54:10.495Z,49.40
2018-04-19T07:56:38.009Z,50.10
2018-04-19T07:59:05.489Z,49.70
2018-04-19T08:01:32.958Z,49.40
2018-04-19T08:04:01.632Z,49.10
2018-04-19T08:06:29.078Z,49.10
2018-04-19T08:08:56.538Z,49.10
2018-04-19T08:11:24.057Z,48.80
2018-04-19T08:13:51.447Z,48.40
2018-04-19T08:16:19.435Z,47.30
2018-04-19T08:18:46.984Z,46.50
2018-04-19T08:21:15.269Z,46.10
2018-04-19T08:23:43.532Z,45.60
2018-04-19T08:26:11.778Z,44.70
2018-04-19T08:28:39.268Z,44.70
2018-04-19T08:31:06.736Z,44.10
2018-04-19T08:33:34.969Z,43.20
2018-04-19T08:36:02.457Z,43.20
2018-04-19T08:38:29.958Z,42.70
2018-04-19T08:40:57.411Z,42.10
2018-04-19T08:43:24.881Z,42.00
2018-04-19T08:45:52.499Z,41.00
2018-04-19T08:48:19.971Z,40.50
2018-04-19T08:50:47.514Z,40.00
2018-04-19T08:53:14.940Z,40.00
2018-04-19T08:55:42.400Z,40.00
2018-04-19T08:58:09.926Z,39.50
2018-04-19T09:00:37.444Z,39.30
2018-04-19T09:03:05.670Z,38.00
2018-04-19T09:05:33.169Z,38.00
2018-04-19T09:08:00.660Z,36.30
2018-04-19T09:10:28.142Z,36.20
2018-04-19T09:12:55.600Z,36.10
2018-04-19T09:15:23.061Z,36.10
2018-04-19T09:17:50.531Z,35.40
2018-04-19T09:20:18.770Z,35.20
2018-04-19T09:22:46.508Z,35.20
2018-04-19T09:25:14.184Z,36.50
2018-04-19T09:27:41.650Z,36.40
2018-04-19T09:30:09.174Z,36.30
2018-04-19T09:32:36.685Z,36.50
2018-04-19T09:35:04.184Z,35.30
2018-04-19T09:37:31.657Z,34.50
2018-04-19T09:39:59.230Z,34.20
2018-04-19T09:42:27.004Z,33.50
2018-04-19T09:44:54.473Z,33.50
2018-04-19T09:47:22.007Z,34.20
2018-04-19T09:49:49.539Z,34.20
2018-04-19T09:52:16.999Z,33.10
2018-04-19T09:54:44.557Z,33.10
2018-04-19T09:57:12.068Z,33.10
2018-04-19T09:59:39.774Z,33.00
2018-04-19T10:02:07.261Z,33.80
2018-04-19T10:04:34.735Z,33.60
2018-04-19T10:07:02.258Z,33.50
2018-04-19T10:09:29.820Z,33.20
2018-04-19T10:11:57.274Z,33.20
2018-04-19T10:14:24.850Z,32.70
2018-04-19T10:16:52.414Z,31.80
2018-04-19T10:19:19.878Z,32.80
2018-04-19T10:21:47.328Z,33.10
2018-04-19T10:24:14.802Z,32.70
2018-04-19T10:26:42.366Z,32.80
2018-04-19T10:29:09.929Z,32.70
2018-04-19T10:31:37.414Z,32.80
2018-04-19T10:34:04.872Z,32.70
2018-04-19T10:36:32.407Z,32.40
2018-04-19T10:38:59.862Z,31.50
2018-04-19T10:41:27.363Z,31.10
2018-04-19T10:43:54.828Z,30.00
2018-04-19T10:46:22.407Z,29.40
2018-04-19T10:48:49.865Z,29.80
2018-04-19T10:51:17.599Z,30.10
2018-04-19T10:53:45.049Z,29.80
2018-04-19T10:56:12.527Z,29.70
2018-04-19T10:58:39.985Z,29.40
2018-04-19T11:01:08.240Z,27.70
2018-04-19T11:03:35.690Z,27.70
2018-04-19T11:06:03.902Z,27.60
2018-04-19T11:08:32.186Z,27.50
2018-04-19T11:10:59.676Z,27.50
2018-04-19T11:13:27.202Z,27.70
2018-04-19T11:15:54.759Z,27.70
2018-04-19T11:18:22.223Z,28.40
2018-04-19T11:20:49.670Z,28.70
2018-04-19T11:23:17.151Z,27.60
2018-04-19T11:25:44.606Z,27.40
2018-04-19T11:28:12.084Z,26.90
2018-04-19T11:30:39.535Z,26.70
2018-04-19T11:33:07.040Z,26.90
2018-04-19T11:35:35.262Z,27.50
2018-04-19T11:38:02.801Z,27.50
2018-04-19T11:40:30.339Z,27.50
2018-04-19T11:42:57.805Z,28.00
2018-04-19T11:45:25.313Z,27.70
2018-04-19T11:47:52.782Z,28.00
2018-04-19T11:50:20.260Z,28.20
2018-04-19T11:52:48.248Z,28.30
2018-04-19T11:55:15.719Z,28.00
2018-04-19T11:57:43.222Z,26.40
2018-04-19T12:00:10.706Z,26.10
2018-04-19T12:02:38.930Z,27.00
2018-04-19T12:05:06.398Z,26.90
2018-04-19T12:07:33.903Z,26.70
2018-04-19T12:10:01.796Z,26.30
2018-04-19T12:12:29.377Z,26.10
2018-04-19T12:14:57.194Z,26.00
2018-04-19T12:17:24.701Z,25.70
2018-04-19T12:19:52.164Z,25.50
2018-04-19T12:22:19.670Z,25.30
2018-04-19T12:24:47.904Z,25.50
2018-04-19T12:27:15.538Z,25.50
2018-04-19T12:29:43.659Z,25.50
2018-04-19T12:32:11.173Z,25.80
2018-04-19T12:34:38.628Z,26.00
2018-04-19T12:37:06.703Z,26.10
2018-04-19T12:39:34.528Z,26.00
2018-04-19T12:42:02.675Z,26.10
2018-04-19T12:44:30.906Z,26.30
2018-04-19T12:46:58.412Z,26.30
2018-04-19T12:49:26.782Z,27.00
2018-04-19T12:51:54.745Z,27.00
2018-04-19T12:54:22.284Z,27.00
2018-04-19T12:56:50.500Z,26.70
2018-04-19T12:59:17.996Z,26.60
2018-04-19T13:01:46.287Z,26.90
2018-04-19T13:04:14.520Z,26.20
2018-04-19T13:06:41.968Z,26.10
2018-04-19T13:09:09.472Z,26.30
2018-04-19T13:11:37.047Z,26.30
2018-04-19T13:14:04.516Z,26.10
2018-04-19T13:16:32.041Z,25.90
2018-04-19T13:19:00.960Z,24.80
2018-04-19T13:21:28.507Z,24.80
2018-04-19T13:23:55.964Z,24.10
2018-04-19T13:26:23.459Z,24.10
2018-04-19T13:28:50.930Z,24.60
2018-04-19T13:31:18.403Z,25.00
2018-04-19T13:33:45.968Z,24.70
2018-04-19T13:36:13.497Z,25.20
2018-04-19T13:38:41.041Z,24.70
2018-04-19T13:41:08.499Z,24.20
2018-04-19T13:43:36.039Z,23.50
2018-04-19T13:46:03.497Z,23.70
2018-04-19T13:48:31.064Z,23.90
2018-04-19T13:50:58.605Z,23.90
2018-04-19T13:53:26.838Z,22.90
2018-04-19T13:55:54.317Z,22.90
2018-04-19T13:58:21.827Z,23.00
2018-04-19T14:00:50.065Z,24.10
2018-04-19T14:03:17.523Z,24.10
2018-04-19T14:05:46.538Z,23.80
2018-04-19T14:08:14.804Z,23.70
2018-04-19T14:10:42.312Z,23.50
2018-04-19T14:13:09.831Z,23.60
2018-04-19T14:15:37.406Z,23.40
2018-04-19T14:18:05.658Z,23.10
2018-04-19T14:20:33.223Z,23.00
2018-04-19T14:23:00.782Z,23.10
2018-04-19T14:25:28.342Z,23.90
2018-04-19T14:27:55.821Z,23.40
2018-04-19T14:30:24.107Z,22.50
2018-04-19T14:32:51.670Z,22.50
2018-04-19T14:35:19.133Z,22.30
2018-04-19T14:37:46.611Z,22.20
2018-04-19T14:40:14.926Z,22.50
2018-04-19T14:42:42.482Z,22.40
2018-04-19T14:45:09.945Z,22.20
2018-04-19T14:47:37.422Z,21.90
2018-04-19T14:50:05.747Z,22.90
2018-04-19T14:52:33.200Z,22.90
2018-04-19T14:55:00.661Z,23.00
2018-04-19T14:57:28.207Z,22.80
2018-04-19T14:59:56.453Z,22.90
2018-04-19T15:02:23.923Z,22.90
2018-04-19T15:04:52.077Z,23.10
2018-04-19T15:07:19.533Z,23.20
2018-04-19T15:09:47.557Z,23.20
2018-04-19T15:12:15.085Z,23.40
2018-04-19T15:14:42.590Z,23.40
2018-04-19T15:17:11.125Z,23.50
2018-04-19T15:19:38.583Z,23.50
2018-04-19T15:22:06.051Z,23.50
2018-04-19T15:24:33.504Z,22.40
2018-04-19T15:27:00.981Z,20.70
2018-04-19T15:29:28.487Z,18.50
2018-04-19T15:31:56.055Z,16.30
2018-04-19T15:34:24.281Z,12.30
2018-04-19T15:36:51.817Z,12.20
2018-04-19T15:39:19.697Z,11.10
2018-04-19T15:41:47.153Z,9.90
2018-04-19T15:44:14.717Z,8.90
2018-04-19T15:46:42.201Z,8.40
2018-04-19T15:49:09.671Z,8.10
2018-04-19T15:51:37.154Z,7.70
2018-04-19T15:54:04.633Z,7.70
2018-04-19T15:56:32.988Z,8.50
2018-04-19T15:59:00.433Z,8.40
2018-04-19T16:01:27.927Z,10.00
2018-04-19T16:03:55.412Z,11.30
2018-04-19T16:06:23.709Z,10.20
2018-04-19T16:08:51.184Z,10.20
2018-04-19T16:11:18.771Z,9.50
2018-04-19T16:13:47.121Z,9.40
2018-04-19T16:16:14.642Z,9.50
2018-04-19T16:18:42.890Z,11.60
2018-04-19T16:21:10.572Z,11.50
2018-04-19T16:23:38.088Z,12.60
2018-04-19T16:26:05.645Z,13.40
2018-04-19T16:28:33.132Z,13.90
2018-04-19T16:31:00.657Z,14.90
2018-04-19T16:33:28.182Z,15.60
2018-04-19T16:35:55.684Z,16.00
2018-04-19T16:38:23.310Z,16.70
2018-04-19T16:40:50.780Z,17.20
2018-04-19T16:43:18.258Z,17.60
2018-04-19T16:45:45.796Z,17.80
2018-04-19T16:48:13.298Z,18.30
2018-04-19T16:50:40.824Z,18.10
2018-04-19T16:53:08.328Z,18.30
2018-04-19T16:55:35.948Z,18.90
2018-04-19T16:58:03.461Z,19.90
2018-04-19T17:00:31.711Z,21.80
2018-04-19T17:02:59.202Z,21.40
2018-04-19T17:05:27.258Z,22.00
2018-04-19T17:07:54.738Z,22.60
2018-04-19T17:10:22.263Z,23.10
2018-04-19T17:12:49.796Z,23.30
2018-04-19T17:15:18.074Z,23.80
2018-04-19T17:17:45.686Z,23.80
2018-04-19T17:20:13.182Z,24.20
2018-04-19T17:22:40.674Z,24.70
2018-04-19T17:25:08.158Z,25.10
2018-04-19T17:27:36.404Z,25.70
2018-04-19T17:30:04.712Z,26.20
2018-04-19T17:32:32.260Z,26.10
2018-04-19T17:34:59.825Z,26.50
2018-04-19T17:37:27.333Z,27.00
2018-04-19T17:39:55.655Z,27.80
2018-04-19T17:42:23.150Z,28.10
2018-04-19T17:44:50.871Z,28.60
2018-04-19T17:47:18.360Z,28.40
2018-04-19T17:49:46.595Z,28.60
2018-04-19T17:52:14.094Z,28.50
2018-04-19T17:54:42.509Z,29.50
2018-04-19T17:57:10.056Z,29.50
2018-04-19T17:59:37.788Z,29.60
2018-04-19T18:02:05.396Z,29.10
2018-04-19T18:04:32.915Z,29.70
2018-04-19T18:07:01.234Z,30.30
2018-04-19T18:09:28.702Z,30.30
2018-04-19T18:11:56.283Z,31.80
2018-04-19T18:14:23.844Z,32.80
2018-04-19T18:16:52.101Z,33.80
2018-04-19T18:19:19.570Z,34.30
2018-04-19T18:21:47.073Z,34.80
2018-04-19T18:24:14.602Z,35.30
2018-04-19T18:26:42.088Z,35.50
2018-04-19T18:29:10.342Z,37.00
2018-04-19T18:31:37.852Z,37.00
2018-04-19T18:34:05.404Z,37.80
2018-04-19T18:36:32.976Z,39.00
2018-04-19T18:39:00.474Z,39.90
2018-04-19T18:41:27.976Z,40.60
2018-04-19T18:43:56.249Z,41.50
2018-04-19T18:46:23.941Z,41.50
2018-04-19T18:48:52.217Z,42.20
2018-04-19T18:51:20.460Z,43.50
2018-04-19T18:53:47.986Z,43.40
2018-04-19T18:56:15.500Z,44.20
2018-04-19T18:58:43.792Z,45.50
2018-04-19T19:01:11.304Z,44.70
2018-04-19T19:03:38.839Z,44.80
2018-04-19T19:06:07.104Z,46.00
2018-04-19T19:08:35.366Z,45.90
2018-04-19T19:11:03.605Z,46.00
2018-04-19T19:13:31.097Z,46.00
2018-04-19T19:16:14.309Z,46.80
2018-04-19T19:18:54.718Z,47.20
2018-04-19T19:21:22.248Z,47.10
2018-04-19T19:23:49.755Z,47.60
2018-04-19T19:26:17.230Z,47.70
2018-04-19T19:28:45.507Z,48.90
2018-04-19T19:31:13.014Z,48.20
2018-04-19T19:33:40.593Z,48.70
2018-04-19T19:36:08.080Z,49.00
2018-04-19T19:38:35.561Z,49.40
2018-04-19T19:41:03.827Z,49.90
2018-04-19T19:43:32.131Z,50.00
2018-04-19T19:45:59.625Z,49.90
2018-04-19T19:48:27.103Z,50.50
2018-04-19T19:50:54.678Z,50.90
2018-04-19T19:53:22.159Z,50.90
2018-04-19T19:55:49.645Z,51.20
2018-04-19T19:58:17.121Z,51.00
2018-04-19T20:00:44.736Z,51.20
2018-04-19T20:03:12.229Z,51.30
2018-04-19T20:05:39.735Z,51.20
2018-04-19T20:08:07.300Z,51.20
2018-04-19T20:10:34.856Z,51.40
2018-04-19T20:13:02.362Z,51.50
2018-04-19T20:15:29.975Z,51.80
2018-04-19T20:17:57.491Z,52.00
2018-04-19T20:20:25.760Z,52.00
2018-04-19T20:22:54.139Z,52.20
2018-04-19T20:25:21.632Z,52.10
2018-04-19T20:27:49.128Z,52.10
2018-04-19T20:30:16.604Z,52.00
2018-04-19T20:32:44.078Z,52.20
2018-04-19T20:35:11.939Z,52.20
2018-04-19T20:37:39.473Z,52.30
2018-04-19T20:40:06.995Z,52.30
2018-04-19T20:42:34.543Z,52.40
2018-04-19T20:45:02.576Z,52.50
2018-04-19T20:47:30.849Z,53.10
2018-04-19T20:49:58.361Z,53.00
2018-04-19T20:52:26.626Z,53.60
2018-04-19T20:54:54.909Z,53.70
2018-04-19T20:57:23.222Z,53.70
2018-04-19T20:59:50.710Z,53.70
2018-04-19T21:02:19.012Z,54.10
2018-04-19T21:04:46.518Z,54.00
2018-04-19T21:07:14.010Z,54.00
2018-04-19T21:09:41.709Z,53.80
2018-04-19T21:12:09.224Z,53.70
2018-04-19T21:14:36.724Z,53.90
2018-04-19T21:17:04.349Z,53.80
2018-04-19T21:19:31.841Z,53.90
2018-04-19T21:21:59.381Z,54.30
2018-04-19T21:24:26.941Z,54.40
2018-04-19T21:26:54.604Z,54.70
2018-04-19T21:29:22.164Z,54.80
2018-04-19T21:31:49.665Z,54.70
2018-04-19T21:34:17.161Z,54.90
2018-04-19T21:36:44.642Z,55.10
2018-04-19T21:39:12.255Z,55.00
2018-04-19T21:41:39.742Z,54.80
2018-04-19T21:44:07.235Z,54.90
2018-04-19T21:46:35.553Z,55.00
2018-04-19T21:49:03.110Z,55.00
2018-04-19T21:51:30.689Z,55.00
2018-04-19T21:53:58.234Z,54.90
2018-04-19T21:56:25.781Z,54.80
2018-04-19T21:58:54.078Z,54.60
2018-04-19T22:01:21.568Z,54.50
2018-04-19T22:03:49.830Z,54.80
2018-04-19T22:06:18.078Z,54.30
2018-04-19T22:08:45.603Z,54.30
2018-04-19T22:11:13.128Z,54.40
2018-04-19T22:13:40.624Z,53.30
2018-04-19T22:16:08.147Z,53.40
2018-04-19T22:18:35.676Z,53.70
2018-04-19T22:21:03.188Z,54.00
2018-04-19T22:23:30.678Z,53.70
2018-04-19T22:25:58.214Z,53.90
2018-04-19T22:28:25.714Z,54.10
2018-04-19T22:30:53.259Z,53.70
2018-04-19T22:33:21.501Z,54.00
2018-04-19T22:35:48.967Z,53.90
2018-04-19T22:38:16.477Z,54.10
2018-04-19T22:40:44.728Z,54.60
2018-04-19T22:43:12.236Z,54.00
2018-04-19T22:45:39.804Z,54.10
2018-04-19T22:48:07.303Z,54.40
2018-04-19T22:50:34.788Z,54.60
2018-04-19T22:53:02.289Z,55.00
2018-04-19T22:55:29.972Z,55.60
2018-04-19T22:57:57.480Z,55.90
2018-04-19T23:00:24.954Z,56.10
2018-04-19T23:02:52.442Z,56.10
2018-04-19T23:05:19.954Z,56.50
2018-04-19T23:07:47.516Z,56.40
2018-04-19T23:10:15.014Z,56.60
2018-04-19T23:12:43.314Z,57.00
2018-04-19T23:15:10.872Z,56.90
2018-04-19T23:17:38.409Z,57.30
2018-04-19T23:20:06.001Z,57.60
2018-04-19T23:22:34.369Z,58.00
2018-04-19T23:25:01.892Z,57.90
2018-04-19T23:27:29.482Z,58.10
2018-04-19T23:29:56.980Z,58.50
2018-04-19T23:32:24.533Z,58.90
2018-04-19T23:34:52.851Z,58.30
2018-04-19T23:37:20.305Z,58.30
2018-04-19T23:39:48.134Z,58.50
2018-04-19T23:42:15.599Z,58.40
2018-04-19T23:44:43.064Z,58.80
2018-04-19T23:47:11.154Z,58.40
2018-04-19T23:49:39.495Z,56.80
2018-04-19T23:52:07.772Z,57.00
2018-04-19T23:54:35.332Z,57.00
2018-04-19T23:57:03.648Z,57.80
2018-04-19T23:59:31.165Z,57.80
